Salida, CO

10:31 AM MDT on September 18, 2014 (GMT -0600)
Saguache | Change Station
CLOSE
Current Station
Airport
Location: Saguache,
Elevation: 7825 ft
Nearby Weather Stations

Elev 7825 ft 38.10 °N, 106.17 °W | Updated 2 hours ago

Clear
Clear
50 °F
Feels Like 50 °F
N
17
Wind Variable Wind from NW
Gusts 22 mph

Today
High -- | Low -- °F
--% Chance of Precip.
Yesterday
High -- | Low -- °F
Precip. -- in
6:48 AM 7:07 PM
Waning Crescent, 26% visible
Pressure 30.28 in
Visibility 10.0 miles
Clouds Clear
Dew Point 34 °F
Humidity 54%
Rainfall 0.00 in
Snow Depth 1 in , 0 in , 188 in
UV 1 out of 12
Pollen 6.00 out of 12
Air Quality Not available.
Flu Activity Not available.
METAR K04V 181345Z AUTO 32015G19KT 10SM CLR 10/01 A3028 RMK AO2

More Conditions Fewer Conditions

Pressure 30.28 in
Visibility 10.0 miles
Clouds Clear
Dew Point 34 °F
Humidity 54%
Rainfall 0.00 in
Snow Depth 1 in , 0 in , 188 in
UV 1 out of 12
Pollen 6.00 out of 12
Air Quality Not available.
Flu Activity Not available.
METAR K04V 181345Z AUTO 32015G19KT 10SM CLR 10/01 A3028 RMK AO2

More Conditions Fewer Conditions

10-Day Weather Forecast

Almanac

Astronomy

Sep. 18, 2014 Rise Set
Actual Time 6:48 AM MDT 7:07 PM MDT
Civil Twilight 6:21 AM MDT 7:33 PM MDT
Nautical Twilight 5:50 AM MDT 8:04 PM MDT
Astronomical Twilight 5:18 AM MDT 8:36 PM MDT
Moon 1:45 AM MDT 3:57 PM MDT
Length of Visible Light 13h 12m
Length of Day
12h 19m
Tomorrow will be 2m 27s shorter.
Waning Crescent, 26% of the Moon is Illuminated
Today
Waning Crescent
Sep 24
New
Oct 1
First Quarter
Oct 8
Full
Oct 15
Last Quarter

Today's Extremes

State Highs State Lows

Community

WunderPhotos

Upload Photos

1,754,394 photos uploaded!

Nearby

Snow Depth

Station Depth Elevation
Grayback 1 in 11620 ft
Mineral Creek 0 in 10040 ft
Independence Pass 188 in 10600 ft
Lake Irene 1 in 10700 ft
Fremont Pass 0 in 11400 ft

Earthquake Activity

City Distance Mag. Time & Date
No recent earthquake activity has been reported nearby.
Minimum magnitude displayed is 2.5.

Coastal Water Temperatures

Place Temperature
No Stations Reporting

Nearby Weather Stations